Sommer S — WDG3830 — position and weather

sailwx.info

Track history (hours):
 
Tides and Currents Weather Stations Pressure Air Temp Water Temp Dewpoint Dewpoint Depression Visibility Wind Speed Wind Dir Waves Ship Positions

Sommer S

Owner: Shaver Transportation Company, Portland, OR. More information available from US FCC via Universal Licensing System and Coast Guard Vessel Documentation Center.

Last reported at 2014-Oct-02 04:17 UTC. Time now 2014-Oct-02 12:28 UTC.
Position N 45°38' W 122°43'.

Length 25 m.

Type: Tug. MMSI: 367530080.

Date/timePositionNaut miles runAvg speedWind from/ knotsBaromVisibWave heightAir tempDewpointWater temp
2014-Oct-02 04:17N 45°38' W 122°43'  
2014-Sep-29 18:08N 45°38' W 122°42'1 0.7
2014-Sep-29 17:21N 45°38' W 122°43'1 0.6
2014-Sep-29 16:24N 45°38' W 122°42'0 0.0
2014-Sep-28 12:05N 45°38' W 122°42'52 3.3
2014-Sep-27 20:33N 46°15' W 123°34'8 7.7
2014-Sep-27 19:33N 46°14' W 123°44'7 7.5
2014-Sep-27 18:33N 46°11' W 123°55'6 5.8
2014-Sep-27 17:32N 46°15' W 124°01'2 1.6
2014-Sep-27 16:31N 46°15' W 123°59'1 1.5
2014-Sep-27 15:33N 46°13' W 123°58'5 4.9
2014-Sep-27 14:33N 46°11' W 123°52'0 0.0
2014-Sep-27 13:33N 46°11' W 123°52'0 0.0
2014-Sep-27 12:33N 46°11' W 123°52'0 0.3
2014-Sep-27 11:33N 46°12' W 123°52'0 0.2
2014-Sep-27 10:33N 46°11' W 123°52'0 0.0
2014-Sep-27 09:33N 46°11' W 123°52'0 0.0
2014-Sep-27 08:33N 46°11' W 123°52'6 5.7
2014-Sep-27 07:33N 46°14' W 123°44'  
2014-Sep-24 13:28N 45°38' W 122°42'  
Track history (hours):
 
Tides and Currents Weather Stations Pressure Air Temp Water Temp Dewpoint Dewpoint Depression Visibility Wind Speed Wind Dir Waves Ship Positions

Sommer S

Owner: Shaver Transportation Company, Portland, OR. More information available from US FCC via Universal Licensing System and Coast Guard Vessel Documentation Center.

Last reported at 2014-Oct-02 04:17 UTC. Time now 2014-Oct-02 12:28 UTC.
Position N 45°38' W 122°43'.

Length 25 m.

Type: Tug. MMSI: 367530080.

Date/timePositionNaut miles runAvg speedWind from/ knotsBaromVisibWave heightAir tempDewpointWater temp
2014-Oct-02 04:17N 45°38' W 122°43'  
2014-Sep-29 18:08N 45°38' W 122°42'1 0.7
2014-Sep-29 17:21N 45°38' W 122°43'1 0.6
2014-Sep-29 16:24N 45°38' W 122°42'0 0.0
2014-Sep-28 12:05N 45°38' W 122°42'52 3.3
2014-Sep-27 20:33N 46°15' W 123°34'8 7.7
2014-Sep-27 19:33N 46°14' W 123°44'7 7.5
2014-Sep-27 18:33N 46°11' W 123°55'6 5.8
2014-Sep-27 17:32N 46°15' W 124°01'2 1.6
2014-Sep-27 16:31N 46°15' W 123°59'1 1.5
2014-Sep-27 15:33N 46°13' W 123°58'5 4.9
2014-Sep-27 14:33N 46°11' W 123°52'0 0.0
2014-Sep-27 13:33N 46°11' W 123°52'0 0.0
2014-Sep-27 12:33N 46°11' W 123°52'0 0.3
2014-Sep-27 11:33N 46°12' W 123°52'0 0.2
2014-Sep-27 10:33N 46°11' W 123°52'0 0.0
2014-Sep-27 09:33N 46°11' W 123°52'0 0.0
2014-Sep-27 08:33N 46°11' W 123°52'6 5.7
2014-Sep-27 07:33N 46°14' W 123°44'  
2014-Sep-24 13:28N 45°38' W 122°42'  

Dump ship's entire track history